sensor_id;sensor_type;location;lat;lon;timestamp;P1;durP1;ratioP1;P2;durP2;ratioP2
2610;SDS011;5612;51.134;17.058;2023-06-14T00:00:48;10.93;;;7.33;;
2610;SDS011;5612;51.134;17.058;2023-06-14T00:03:19;7.63;;;7.03;;
2610;SDS011;5612;51.134;17.058;2023-06-14T00:05:50;7.70;;;7.00;;
2610;SDS011;5612;51.134;17.058;2023-06-14T00:08:19;7.87;;;6.37;;
2610;SDS011;5612;51.134;17.058;2023-06-14T00:10:49;7.80;;;7.20;;
2610;SDS011;5612;51.134;17.058;2023-06-14T00:13:18;7.30;;;6.63;;
2610;SDS011;5612;51.134;17.058;2023-06-14T00:15:47;7.40;;;6.80;;
2610;SDS011;5612;51.134;17.058;2023-06-14T00:18:16;6.40;;;5.90;;
2610;SDS011;5612;51.134;17.058;2023-06-14T00:20:45;8.20;;;7.40;;
2610;SDS011;5612;51.134;17.058;2023-06-14T00:23:15;7.37;;;6.77;;
2610;SDS011;5612;51.134;17.058;2023-06-14T00:25:44;7.60;;;7.00;;
2610;SDS011;5612;51.134;17.058;2023-06-14T00:28:13;7.70;;;7.10;;
2610;SDS011;5612;51.134;17.058;2023-06-14T00:30:42;7.80;;;7.10;;
2610;SDS011;5612;51.134;17.058;2023-06-14T00:33:13;7.70;;;7.10;;
2610;SDS011;5612;51.134;17.058;2023-06-14T00:35:42;6.87;;;6.30;;
2610;SDS011;5612;51.134;17.058;2023-06-14T00:38:11;8.00;;;7.30;;
2610;SDS011;5612;51.134;17.058;2023-06-14T00:40:41;8.50;;;7.80;;
2610;SDS011;5612;51.134;17.058;2023-06-14T00:43:10;7.90;;;7.10;;
2610;SDS011;5612;51.134;17.058;2023-06-14T00:45:39;7.60;;;7.00;;
2610;SDS011;5612;51.134;17.058;2023-06-14T00:48:08;7.40;;;6.80;;
2610;SDS011;5612;51.134;17.058;2023-06-14T00:50:38;8.07;;;7.37;;
2610;SDS011;5612;51.134;17.058;2023-06-14T00:53:08;7.97;;;7.27;;
2610;SDS011;5612;51.134;17.058;2023-06-14T00:55:37;7.40;;;6.70;;
2610;SDS011;5612;51.134;17.058;2023-06-14T00:58:07;8.03;;;7.30;;
2610;SDS011;5612;51.134;17.058;2023-06-14T01:00:37;7.97;;;7.37;;
2610;SDS011;5612;51.134;17.058;2023-06-14T01:03:06;8.13;;;7.33;;
2610;SDS011;5612;51.134;17.058;2023-06-14T01:05:39;8.37;;;7.67;;
2610;SDS011;5612;51.134;17.058;2023-06-14T01:08:14;8.17;;;7.50;;
2610;SDS011;5612;51.134;17.058;2023-06-14T01:10:56;8.10;;;7.47;;
2610;SDS011;5612;51.134;17.058;2023-06-14T01:13:34;7.73;;;7.13;;
2610;SDS011;5612;51.134;17.058;2023-06-14T01:16:03;8.13;;;7.27;;
2610;SDS011;5612;51.134;17.058;2023-06-14T01:18:35;7.60;;;6.90;;
2610;SDS011;5612;51.134;17.058;2023-06-14T01:21:04;8.30;;;7.60;;
2610;SDS011;5612;51.134;17.058;2023-06-14T01:23:36;8.47;;;7.87;;
2610;SDS011;5612;51.134;17.058;2023-06-14T01:26:05;10.33;;;8.27;;
2610;SDS011;5612;51.134;17.058;2023-06-14T01:28:34;8.43;;;7.70;;
2610;SDS011;5612;51.134;17.058;2023-06-14T01:31:04;8.10;;;7.27;;
2610;SDS011;5612;51.134;17.058;2023-06-14T01:33:35;8.00;;;7.20;;
2610;SDS011;5612;51.134;17.058;2023-06-14T01:36:05;9.40;;;8.60;;
2610;SDS011;5612;51.134;17.058;2023-06-14T01:38:37;7.83;;;7.17;;
2610;SDS011;5612;51.134;17.058;2023-06-14T01:41:07;8.80;;;7.83;;
2610;SDS011;5612;51.134;17.058;2023-06-14T01:43:38;9.40;;;8.50;;
2610;SDS011;5612;51.134;17.058;2023-06-14T01:46:08;9.27;;;7.13;;
2610;SDS011;5612;51.134;17.058;2023-06-14T01:48:37;8.80;;;7.87;;
2610;SDS011;5612;51.134;17.058;2023-06-14T01:51:06;7.87;;;7.10;;
2610;SDS011;5612;51.134;17.058;2023-06-14T01:53:35;8.37;;;7.77;;
2610;SDS011;5612;51.134;17.058;2023-06-14T01:56:06;9.03;;;8.33;;
2610;SDS011;5612;51.134;17.058;2023-06-14T01:58:35;8.67;;;7.97;;
2610;SDS011;5612;51.134;17.058;2023-06-14T02:01:04;8.37;;;7.77;;
2610;SDS011;5612;51.134;17.058;2023-06-14T02:03:34;8.93;;;8.20;;
2610;SDS011;5612;51.134;17.058;2023-06-14T02:06:05;8.20;;;7.17;;
2610;SDS011;5612;51.134;17.058;2023-06-14T02:08:34;8.70;;;7.90;;
2610;SDS011;5612;51.134;17.058;2023-06-14T02:13:46;8.13;;;7.33;;
2610;SDS011;5612;51.134;17.058;2023-06-14T02:16:15;7.90;;;7.30;;
2610;SDS011;5612;51.134;17.058;2023-06-14T02:18:44;9.20;;;8.40;;
2610;SDS011;5612;51.134;17.058;2023-06-14T02:21:13;10.67;;;9.87;;
2610;SDS011;5612;51.134;17.058;2023-06-14T02:23:41;9.03;;;7.93;;
2610;SDS011;5612;51.134;17.058;2023-06-14T02:26:10;8.40;;;7.70;;
2610;SDS011;5612;51.134;17.058;2023-06-14T02:28:39;9.10;;;8.40;;
2610;SDS011;5612;51.134;17.058;2023-06-14T02:31:09;9.10;;;8.40;;
2610;SDS011;5612;51.134;17.058;2023-06-14T02:33:38;10.10;;;8.43;;
2610;SDS011;5612;51.134;17.058;2023-06-14T02:36:07;9.70;;;8.90;;
2610;SDS011;5612;51.134;17.058;2023-06-14T02:38:36;9.40;;;8.67;;
2610;SDS011;5612;51.134;17.058;2023-06-14T02:41:05;9.17;;;8.47;;
2610;SDS011;5612;51.134;17.058;2023-06-14T02:43:33;8.87;;;8.17;;
2610;SDS011;5612;51.134;17.058;2023-06-14T02:46:03;9.07;;;8.17;;
2610;SDS011;5612;51.134;17.058;2023-06-14T02:48:33;8.23;;;7.53;;
2610;SDS011;5612;51.134;17.058;2023-06-14T02:51:02;7.77;;;7.17;;
2610;SDS011;5612;51.134;17.058;2023-06-14T02:53:35;8.30;;;7.70;;
2610;SDS011;5612;51.134;17.058;2023-06-14T02:56:04;8.43;;;7.70;;
2610;SDS011;5612;51.134;17.058;2023-06-14T02:58:33;8.97;;;8.17;;
2610;SDS011;5612;51.134;17.058;2023-06-14T03:01:02;9.10;;;8.40;;
2610;SDS011;5612;51.134;17.058;2023-06-14T03:03:35;8.10;;;7.50;;
2610;SDS011;5612;51.134;17.058;2023-06-14T03:06:04;7.97;;;7.27;;
2610;SDS011;5612;51.134;17.058;2023-06-14T03:08:34;11.10;;;7.80;;
2610;SDS011;5612;51.134;17.058;2023-06-14T03:11:06;9.23;;;8.47;;
2610;SDS011;5612;51.134;17.058;2023-06-14T03:13:35;9.47;;;8.60;;
2610;SDS011;5612;51.134;17.058;2023-06-14T03:16:05;8.50;;;7.70;;
2610;SDS011;5612;51.134;17.058;2023-06-14T03:18:37;8.77;;;7.97;;
2610;SDS011;5612;51.134;17.058;2023-06-14T03:21:06;7.40;;;6.60;;
2610;SDS011;5612;51.134;17.058;2023-06-14T03:23:35;8.37;;;7.67;;
2610;SDS011;5612;51.134;17.058;2023-06-14T03:26:04;9.20;;;8.50;;
2610;SDS011;5612;51.134;17.058;2023-06-14T03:28:33;8.97;;;8.00;;
2610;SDS011;5612;51.134;17.058;2023-06-14T03:31:02;8.47;;;7.77;;
2610;SDS011;5612;51.134;17.058;2023-06-14T03:33:31;8.63;;;7.93;;
2610;SDS011;5612;51.134;17.058;2023-06-14T03:36:01;7.67;;;7.10;;
2610;SDS011;5612;51.134;17.058;2023-06-14T03:38:31;9.17;;;8.33;;
2610;SDS011;5612;51.134;17.058;2023-06-14T03:41:00;7.73;;;7.03;;
2610;SDS011;5612;51.134;17.058;2023-06-14T03:43:28;8.37;;;7.77;;
2610;SDS011;5612;51.134;17.058;2023-06-14T03:45:58;9.23;;;8.47;;
2610;SDS011;5612;51.134;17.058;2023-06-14T03:48:26;9.17;;;8.43;;
2610;SDS011;5612;51.134;17.058;2023-06-14T03:50:55;8.37;;;7.57;;
2610;SDS011;5612;51.134;17.058;2023-06-14T03:53:28;8.83;;;8.03;;
2610;SDS011;5612;51.134;17.058;2023-06-14T03:55:57;8.80;;;8.10;;
2610;SDS011;5612;51.134;17.058;2023-06-14T03:58:26;8.57;;;7.97;;
2610;SDS011;5612;51.134;17.058;2023-06-14T04:00:56;7.90;;;7.20;;
2610;SDS011;5612;51.134;17.058;2023-06-14T04:03:24;7.40;;;6.80;;
2610;SDS011;5612;51.134;17.058;2023-06-14T04:05:56;8.23;;;7.63;;
2610;SDS011;5612;51.134;17.058;2023-06-14T04:08:27;8.73;;;7.83;;
2610;SDS011;5612;51.134;17.058;2023-06-14T04:10:57;8.20;;;7.60;;
2610;SDS011;5612;51.134;17.058;2023-06-14T04:13:26;8.10;;;7.40;;
2610;SDS011;5612;51.134;17.058;2023-06-14T04:15:55;8.23;;;7.50;;
2610;SDS011;5612;51.134;17.058;2023-06-14T04:18:23;9.00;;;8.27;;
2610;SDS011;5612;51.134;17.058;2023-06-14T04:20:53;11.60;;;9.97;;
2610;SDS011;5612;51.134;17.058;2023-06-14T04:23:23;11.63;;;10.07;;
2610;SDS011;5612;51.134;17.058;2023-06-14T04:25:53;9.17;;;8.47;;
2610;SDS011;5612;51.134;17.058;2023-06-14T04:28:28;8.97;;;8.27;;
2610;SDS011;5612;51.134;17.058;2023-06-14T04:30:57;9.10;;;8.30;;
2610;SDS011;5612;51.134;17.058;2023-06-14T04:33:28;8.60;;;7.80;;
2610;SDS011;5612;51.134;17.058;2023-06-14T04:35:58;9.20;;;8.50;;
2610;SDS011;5612;51.134;17.058;2023-06-14T04:38:27;9.00;;;8.30;;
2610;SDS011;5612;51.134;17.058;2023-06-14T04:40:59;8.73;;;8.00;;
2610;SDS011;5612;51.134;17.058;2023-06-14T04:43:29;9.00;;;8.13;;
2610;SDS011;5612;51.134;17.058;2023-06-14T04:45:58;9.40;;;8.33;;
2610;SDS011;5612;51.134;17.058;2023-06-14T04:48:28;8.87;;;8.13;;
2610;SDS011;5612;51.134;17.058;2023-06-14T04:50:58;10.50;;;9.50;;
2610;SDS011;5612;51.134;17.058;2023-06-14T04:53:27;10.10;;;9.30;;
2610;SDS011;5612;51.134;17.058;2023-06-14T04:55:56;9.90;;;9.10;;
2610;SDS011;5612;51.134;17.058;2023-06-14T04:58:26;10.67;;;9.73;;
2610;SDS011;5612;51.134;17.058;2023-06-14T05:00:55;9.80;;;8.80;;
2610;SDS011;5612;51.134;17.058;2023-06-14T05:03:26;10.10;;;9.30;;
2610;SDS011;5612;51.134;17.058;2023-06-14T05:06:00;10.63;;;9.60;;
2610;SDS011;5612;51.134;17.058;2023-06-14T05:08:29;11.80;;;10.60;;
2610;SDS011;5612;51.134;17.058;2023-06-14T05:10:58;11.87;;;10.87;;
2610;SDS011;5612;51.134;17.058;2023-06-14T05:13:28;11.07;;;10.10;;
2610;SDS011;5612;51.134;17.058;2023-06-14T05:15:59;12.10;;;11.00;;
2610;SDS011;5612;51.134;17.058;2023-06-14T05:18:28;14.20;;;12.90;;
2610;SDS011;5612;51.134;17.058;2023-06-14T05:20:57;12.60;;;11.50;;
2610;SDS011;5612;51.134;17.058;2023-06-14T05:23:28;12.90;;;11.80;;
2610;SDS011;5612;51.134;17.058;2023-06-14T05:25:57;14.00;;;12.70;;
2610;SDS011;5612;51.134;17.058;2023-06-14T05:28:27;14.17;;;12.97;;
2610;SDS011;5612;51.134;17.058;2023-06-14T05:30:57;13.10;;;11.90;;
2610;SDS011;5612;51.134;17.058;2023-06-14T05:33:26;13.07;;;11.87;;
2610;SDS011;5612;51.134;17.058;2023-06-14T05:35:55;12.47;;;11.37;;
2610;SDS011;5612;51.134;17.058;2023-06-14T05:38:24;13.77;;;12.43;;
2610;SDS011;5612;51.134;17.058;2023-06-14T05:40:53;12.37;;;11.17;;
2610;SDS011;5612;51.134;17.058;2023-06-14T05:43:22;12.20;;;11.00;;
2610;SDS011;5612;51.134;17.058;2023-06-14T05:45:52;12.90;;;11.77;;
2610;SDS011;5612;51.134;17.058;2023-06-14T05:48:21;13.37;;;12.07;;
2610;SDS011;5612;51.134;17.058;2023-06-14T05:50:50;13.93;;;12.83;;
2610;SDS011;5612;51.134;17.058;2023-06-14T05:53:19;11.97;;;11.07;;
2610;SDS011;5612;51.134;17.058;2023-06-14T05:55:47;15.70;;;14.17;;
2610;SDS011;5612;51.134;17.058;2023-06-14T05:58:18;13.13;;;11.83;;
2610;SDS011;5612;51.134;17.058;2023-06-14T06:00:47;12.40;;;11.30;;
2610;SDS011;5612;51.134;17.058;2023-06-14T06:03:17;12.70;;;11.63;;
2610;SDS011;5612;51.134;17.058;2023-06-14T06:05:46;12.20;;;11.20;;
2610;SDS011;5612;51.134;17.058;2023-06-14T06:08:14;35.73;;;15.10;;
2610;SDS011;5612;51.134;17.058;2023-06-14T06:10:43;13.17;;;11.87;;
2610;SDS011;5612;51.134;17.058;2023-06-14T06:13:12;13.93;;;12.73;;
2610;SDS011;5612;51.134;17.058;2023-06-14T06:15:42;14.00;;;12.80;;
2610;SDS011;5612;51.134;17.058;2023-06-14T06:18:11;13.43;;;12.23;;
2610;SDS011;5612;51.134;17.058;2023-06-14T06:20:41;14.63;;;13.23;;
2610;SDS011;5612;51.134;17.058;2023-06-14T06:23:10;13.00;;;11.80;;
2610;SDS011;5612;51.134;17.058;2023-06-14T06:25:39;13.73;;;12.53;;
2610;SDS011;5612;51.134;17.058;2023-06-14T06:28:08;15.40;;;12.90;;
2610;SDS011;5612;51.134;17.058;2023-06-14T06:30:37;13.83;;;12.73;;
2610;SDS011;5612;51.134;17.058;2023-06-14T06:33:06;13.47;;;12.27;;
2610;SDS011;5612;51.134;17.058;2023-06-14T06:35:35;13.50;;;12.30;;
2610;SDS011;5612;51.134;17.058;2023-06-14T06:38:05;12.40;;;11.30;;
2610;SDS011;5612;51.134;17.058;2023-06-14T06:40:36;13.73;;;12.50;;
2610;SDS011;5612;51.134;17.058;2023-06-14T06:43:05;12.93;;;11.80;;
2610;SDS011;5612;51.134;17.058;2023-06-14T06:45:34;13.60;;;12.40;;
2610;SDS011;5612;51.134;17.058;2023-06-14T06:48:03;14.07;;;12.80;;
2610;SDS011;5612;51.134;17.058;2023-06-14T06:50:33;15.40;;;13.80;;
2610;SDS011;5612;51.134;17.058;2023-06-14T06:53:02;14.23;;;12.93;;
2610;SDS011;5612;51.134;17.058;2023-06-14T06:55:32;14.53;;;13.17;;
2610;SDS011;5612;51.134;17.058;2023-06-14T06:58:01;15.50;;;14.20;;
2610;SDS011;5612;51.134;17.058;2023-06-14T07:00:31;15.40;;;14.00;;
2610;SDS011;5612;51.134;17.058;2023-06-14T07:03:00;15.10;;;13.80;;
2610;SDS011;5612;51.134;17.058;2023-06-14T07:05:30;16.80;;;15.03;;
2610;SDS011;5612;51.134;17.058;2023-06-14T07:07:59;15.23;;;13.87;;
2610;SDS011;5612;51.134;17.058;2023-06-14T07:10:28;15.40;;;14.00;;
2610;SDS011;5612;51.134;17.058;2023-06-14T07:12:59;15.10;;;13.50;;
2610;SDS011;5612;51.134;17.058;2023-06-14T07:15:27;15.10;;;13.80;;
2610;SDS011;5612;51.134;17.058;2023-06-14T07:17:56;13.47;;;12.23;;
2610;SDS011;5612;51.134;17.058;2023-06-14T07:20:26;14.03;;;12.70;;
2610;SDS011;5612;51.134;17.058;2023-06-14T07:22:55;15.10;;;13.70;;
2610;SDS011;5612;51.134;17.058;2023-06-14T07:25:24;13.73;;;12.63;;
2610;SDS011;5612;51.134;17.058;2023-06-14T07:27:53;15.13;;;13.73;;
2610;SDS011;5612;51.134;17.058;2023-06-14T07:30:23;14.13;;;12.87;;
2610;SDS011;5612;51.134;17.058;2023-06-14T07:32:53;14.17;;;12.87;;
2610;SDS011;5612;51.134;17.058;2023-06-14T07:35:22;13.40;;;12.27;;
2610;SDS011;5612;51.134;17.058;2023-06-14T07:37:51;11.27;;;10.37;;
2610;SDS011;5612;51.134;17.058;2023-06-14T07:40:20;12.73;;;11.67;;
2610;SDS011;5612;51.134;17.058;2023-06-14T07:42:49;13.20;;;12.10;;
2610;SDS011;5612;51.134;17.058;2023-06-14T07:45:18;11.70;;;10.80;;
2610;SDS011;5612;51.134;17.058;2023-06-14T07:47:48;12.43;;;11.43;;
2610;SDS011;5612;51.134;17.058;2023-06-14T07:50:19;11.83;;;10.73;;
2610;SDS011;5612;51.134;17.058;2023-06-14T07:52:48;12.03;;;11.03;;
2610;SDS011;5612;51.134;17.058;2023-06-14T07:55:17;11.73;;;10.73;;
2610;SDS011;5612;51.134;17.058;2023-06-14T07:57:46;12.70;;;11.57;;
2610;SDS011;5612;51.134;17.058;2023-06-14T08:00:15;11.87;;;11.00;;
2610;SDS011;5612;51.134;17.058;2023-06-14T08:02:46;13.13;;;12.03;;
2610;SDS011;5612;51.134;17.058;2023-06-14T08:05:20;12.93;;;11.83;;
2610;SDS011;5612;51.134;17.058;2023-06-14T08:07:51;13.70;;;12.60;;
2610;SDS011;5612;51.134;17.058;2023-06-14T08:10:20;12.47;;;11.40;;
2610;SDS011;5612;51.134;17.058;2023-06-14T08:12:49;11.80;;;10.90;;
2610;SDS011;5612;51.134;17.058;2023-06-14T08:15:18;11.73;;;10.77;;
2610;SDS011;5612;51.134;17.058;2023-06-14T08:17:49;11.30;;;10.33;;
2610;SDS011;5612;51.134;17.058;2023-06-14T08:20:18;11.03;;;10.13;;
2610;SDS011;5612;51.134;17.058;2023-06-14T08:22:47;10.53;;;9.73;;
2610;SDS011;5612;51.134;17.058;2023-06-14T08:25:16;10.90;;;9.90;;
2610;SDS011;5612;51.134;17.058;2023-06-14T08:27:45;11.50;;;10.37;;
2610;SDS011;5612;51.134;17.058;2023-06-14T08:30:14;10.97;;;9.97;;
2610;SDS011;5612;51.134;17.058;2023-06-14T08:32:44;11.10;;;10.10;;
2610;SDS011;5612;51.134;17.058;2023-06-14T08:35:20;10.23;;;9.43;;
2610;SDS011;5612;51.134;17.058;2023-06-14T08:37:50;10.03;;;9.20;;
2610;SDS011;5612;51.134;17.058;2023-06-14T08:40:19;10.97;;;10.07;;
2610;SDS011;5612;51.134;17.058;2023-06-14T08:42:50;10.63;;;9.60;;
2610;SDS011;5612;51.134;17.058;2023-06-14T08:45:20;11.53;;;10.43;;
2610;SDS011;5612;51.134;17.058;2023-06-14T08:47:53;10.70;;;9.80;;
2610;SDS011;5612;51.134;17.058;2023-06-14T08:50:27;12.40;;;11.40;;
2610;SDS011;5612;51.134;17.058;2023-06-14T08:53:00;12.13;;;10.70;;
2610;SDS011;5612;51.134;17.058;2023-06-14T08:55:31;12.70;;;11.50;;
2610;SDS011;5612;51.134;17.058;2023-06-14T08:58:03;9.70;;;8.90;;
2610;SDS011;5612;51.134;17.058;2023-06-14T09:00:33;12.87;;;10.53;;
2610;SDS011;5612;51.134;17.058;2023-06-14T09:03:04;9.50;;;8.60;;
2610;SDS011;5612;51.134;17.058;2023-06-14T09:05:41;10.10;;;9.27;;
2610;SDS011;5612;51.134;17.058;2023-06-14T09:08:11;10.80;;;9.80;;
2610;SDS011;5612;51.134;17.058;2023-06-14T09:10:40;9.30;;;8.50;;
2610;SDS011;5612;51.134;17.058;2023-06-14T09:13:09;8.60;;;8.03;;
2610;SDS011;5612;51.134;17.058;2023-06-14T09:15:38;9.30;;;8.40;;
2610;SDS011;5612;51.134;17.058;2023-06-14T09:18:07;9.30;;;8.50;;
2610;SDS011;5612;51.134;17.058;2023-06-14T09:20:36;9.63;;;8.90;;
2610;SDS011;5612;51.134;17.058;2023-06-14T09:23:07;8.23;;;7.63;;
2610;SDS011;5612;51.134;17.058;2023-06-14T09:25:41;7.90;;;7.30;;
2610;SDS011;5612;51.134;17.058;2023-06-14T09:28:12;8.80;;;8.00;;
2610;SDS011;5612;51.134;17.058;2023-06-14T09:30:40;9.37;;;8.57;;
2610;SDS011;5612;51.134;17.058;2023-06-14T09:33:09;10.50;;;7.10;;
2610;SDS011;5612;51.134;17.058;2023-06-14T09:35:39;11.07;;;7.90;;
2610;SDS011;5612;51.134;17.058;2023-06-14T09:38:09;7.77;;;7.17;;
2610;SDS011;5612;51.134;17.058;2023-06-14T09:40:38;7.77;;;7.27;;
2610;SDS011;5612;51.134;17.058;2023-06-14T09:43:07;8.80;;;8.00;;
2610;SDS011;5612;51.134;17.058;2023-06-14T09:45:38;8.50;;;7.80;;
2610;SDS011;5612;51.134;17.058;2023-06-14T09:48:07;9.60;;;7.00;;
2610;SDS011;5612;51.134;17.058;2023-06-14T09:50:36;7.97;;;7.27;;
2610;SDS011;5612;51.134;17.058;2023-06-14T09:53:10;7.33;;;6.63;;
2610;SDS011;5612;51.134;17.058;2023-06-14T09:55:40;6.97;;;6.40;;
2610;SDS011;5612;51.134;17.058;2023-06-14T09:58:10;7.70;;;7.10;;
2610;SDS011;5612;51.134;17.058;2023-06-14T10:00:39;8.23;;;7.40;;
2610;SDS011;5612;51.134;17.058;2023-06-14T10:03:13;8.60;;;6.37;;
2610;SDS011;5612;51.134;17.058;2023-06-14T10:05:47;8.27;;;6.30;;
2610;SDS011;5612;51.134;17.058;2023-06-14T10:08:20;11.43;;;6.30;;
2610;SDS011;5612;51.134;17.058;2023-06-14T10:10:53;6.43;;;5.83;;
2610;SDS011;5612;51.134;17.058;2023-06-14T10:13:24;6.33;;;5.80;;
2610;SDS011;5612;51.134;17.058;2023-06-14T10:15:56;5.67;;;5.30;;
2610;SDS011;5612;51.134;17.058;2023-06-14T10:18:30;6.63;;;4.93;;
2610;SDS011;5612;51.134;17.058;2023-06-14T10:21:05;5.93;;;5.35;;
2610;SDS011;5612;51.134;17.058;2023-06-14T10:23:47;4.70;;;4.50;;
2610;SDS011;5612;51.134;17.058;2023-06-14T10:26:22;5.18;;;4.75;;
2610;SDS011;5612;51.134;17.058;2023-06-14T10:28:59;4.70;;;4.30;;
2610;SDS011;5612;51.134;17.058;2023-06-14T10:31:41;4.63;;;4.32;;
2610;SDS011;5612;51.134;17.058;2023-06-14T10:34:11;4.30;;;4.00;;
2610;SDS011;5612;51.134;17.058;2023-06-14T10:36:59;4.65;;;4.25;;
2610;SDS011;5612;51.134;17.058;2023-06-14T10:39:31;5.00;;;4.70;;
2610;SDS011;5612;51.134;17.058;2023-06-14T10:42:04;4.87;;;4.57;;
2610;SDS011;5612;51.134;17.058;2023-06-14T10:44:38;5.77;;;5.30;;
2610;SDS011;5612;51.134;17.058;2023-06-14T10:47:10;6.43;;;5.83;;
2610;SDS011;5612;51.134;17.058;2023-06-14T10:49:49;5.83;;;5.30;;
2610;SDS011;5612;51.134;17.058;2023-06-14T10:52:24;5.13;;;4.73;;
2610;SDS011;5612;51.134;17.058;2023-06-14T10:55:00;4.90;;;4.60;;
2610;SDS011;5612;51.134;17.058;2023-06-14T10:57:31;8.60;;;4.90;;
2610;SDS011;5612;51.134;17.058;2023-06-14T11:00:16;6.00;;;5.50;;
2610;SDS011;5612;51.134;17.058;2023-06-14T11:03:16;5.43;;;5.03;;
2610;SDS011;5612;51.134;17.058;2023-06-14T11:06:13;4.50;;;4.20;;
2610;SDS011;5612;51.134;17.058;2023-06-14T11:11:43;5.13;;;4.63;;
2610;SDS011;5612;51.134;17.058;2023-06-14T11:14:12;4.80;;;4.50;;
2610;SDS011;5612;51.134;17.058;2023-06-14T11:16:41;5.90;;;4.63;;
2610;SDS011;5612;51.134;17.058;2023-06-14T11:19:10;5.57;;;4.90;;
2610;SDS011;5612;51.134;17.058;2023-06-14T11:21:39;9.43;;;5.17;;
2610;SDS011;5612;51.134;17.058;2023-06-14T11:24:09;5.53;;;4.80;;
2610;SDS011;5612;51.134;17.058;2023-06-14T11:26:39;5.77;;;3.80;;
2610;SDS011;5612;51.134;17.058;2023-06-14T11:29:10;4.33;;;4.13;;
2610;SDS011;5612;51.134;17.058;2023-06-14T11:31:42;4.67;;;4.37;;
2610;SDS011;5612;51.134;17.058;2023-06-14T11:34:12;5.20;;;4.80;;
2610;SDS011;5612;51.134;17.058;2023-06-14T11:36:43;5.00;;;4.50;;
2610;SDS011;5612;51.134;17.058;2023-06-14T11:39:12;4.70;;;4.40;;
2610;SDS011;5612;51.134;17.058;2023-06-14T11:41:42;3.50;;;3.30;;
2610;SDS011;5612;51.134;17.058;2023-06-14T11:44:14;4.20;;;3.83;;
2610;SDS011;5612;51.134;17.058;2023-06-14T11:46:43;4.03;;;3.50;;
2610;SDS011;5612;51.134;17.058;2023-06-14T11:49:12;6.50;;;4.10;;
2610;SDS011;5612;51.134;17.058;2023-06-14T11:51:42;4.33;;;4.10;;
2610;SDS011;5612;51.134;17.058;2023-06-14T11:54:11;4.13;;;3.83;;
2610;SDS011;5612;51.134;17.058;2023-06-14T11:56:40;4.10;;;3.87;;
2610;SDS011;5612;51.134;17.058;2023-06-14T11:59:09;4.80;;;4.50;;
2610;SDS011;5612;51.134;17.058;2023-06-14T12:01:43;5.13;;;4.60;;
2610;SDS011;5612;51.134;17.058;2023-06-14T12:04:12;4.43;;;4.23;;
2610;SDS011;5612;51.134;17.058;2023-06-14T12:06:41;5.00;;;4.60;;
2610;SDS011;5612;51.134;17.058;2023-06-14T12:09:10;4.80;;;4.40;;
2610;SDS011;5612;51.134;17.058;2023-06-14T12:11:44;4.70;;;4.07;;
2610;SDS011;5612;51.134;17.058;2023-06-14T12:14:21;4.93;;;4.30;;
2610;SDS011;5612;51.134;17.058;2023-06-14T12:17:19;4.77;;;4.37;;
2610;SDS011;5612;51.134;17.058;2023-06-14T12:19:48;5.93;;;5.07;;
2610;SDS011;5612;51.134;17.058;2023-06-14T12:22:18;5.03;;;4.63;;
2610;SDS011;5612;51.134;17.058;2023-06-14T12:24:46;5.33;;;4.70;;
2610;SDS011;5612;51.134;17.058;2023-06-14T12:27:15;5.20;;;4.50;;
2610;SDS011;5612;51.134;17.058;2023-06-14T12:29:46;5.83;;;5.43;;
2610;SDS011;5612;51.134;17.058;2023-06-14T12:32:27;5.93;;;5.20;;
2610;SDS011;5612;51.134;17.058;2023-06-14T12:34:58;5.13;;;4.83;;
2610;SDS011;5612;51.134;17.058;2023-06-14T12:37:29;6.80;;;5.33;;
2610;SDS011;5612;51.134;17.058;2023-06-14T12:39:58;6.40;;;5.90;;
2610;SDS011;5612;51.134;17.058;2023-06-14T12:42:26;6.67;;;5.30;;
2610;SDS011;5612;51.134;17.058;2023-06-14T12:44:55;8.60;;;5.47;;
2610;SDS011;5612;51.134;17.058;2023-06-14T12:47:24;5.80;;;5.30;;
2610;SDS011;5612;51.134;17.058;2023-06-14T12:49:55;5.80;;;5.37;;
2610;SDS011;5612;51.134;17.058;2023-06-14T12:52:26;5.80;;;5.40;;
2610;SDS011;5612;51.134;17.058;2023-06-14T12:54:55;8.47;;;5.90;;
2610;SDS011;5612;51.134;17.058;2023-06-14T12:57:24;5.83;;;5.33;;
2610;SDS011;5612;51.134;17.058;2023-06-14T12:59:54;7.43;;;5.27;;
2610;SDS011;5612;51.134;17.058;2023-06-14T13:02:23;5.77;;;5.27;;
2610;SDS011;5612;51.134;17.058;2023-06-14T13:04:52;6.10;;;5.60;;
2610;SDS011;5612;51.134;17.058;2023-06-14T13:07:25;6.07;;;5.57;;
2610;SDS011;5612;51.134;17.058;2023-06-14T13:09:53;10.20;;;5.77;;
2610;SDS011;5612;51.134;17.058;2023-06-14T13:12:22;6.77;;;5.53;;
2610;SDS011;5612;51.134;17.058;2023-06-14T13:14:51;5.60;;;4.87;;
2610;SDS011;5612;51.134;17.058;2023-06-14T13:17:20;6.20;;;5.70;;
2610;SDS011;5612;51.134;17.058;2023-06-14T13:19:49;5.43;;;5.10;;
2610;SDS011;5612;51.134;17.058;2023-06-14T13:22:19;6.30;;;5.70;;
2610;SDS011;5612;51.134;17.058;2023-06-14T13:24:48;5.10;;;4.80;;
2610;SDS011;5612;51.134;17.058;2023-06-14T13:27:17;5.47;;;4.97;;
2610;SDS011;5612;51.134;17.058;2023-06-14T13:29:46;6.27;;;5.10;;
2610;SDS011;5612;51.134;17.058;2023-06-14T13:32:15;7.33;;;5.40;;
2610;SDS011;5612;51.134;17.058;2023-06-14T13:34:44;7.20;;;5.00;;
2610;SDS011;5612;51.134;17.058;2023-06-14T13:37:13;6.43;;;5.47;;
2610;SDS011;5612;51.134;17.058;2023-06-14T13:39:43;5.77;;;5.37;;
2610;SDS011;5612;51.134;17.058;2023-06-14T13:42:12;7.30;;;5.30;;
2610;SDS011;5612;51.134;17.058;2023-06-14T13:44:41;6.00;;;5.60;;
2610;SDS011;5612;51.134;17.058;2023-06-14T13:47:09;5.27;;;4.87;;
2610;SDS011;5612;51.134;17.058;2023-06-14T13:49:39;5.97;;;5.53;;
2610;SDS011;5612;51.134;17.058;2023-06-14T13:52:08;6.30;;;5.60;;
2610;SDS011;5612;51.134;17.058;2023-06-14T13:54:38;5.87;;;5.40;;
2610;SDS011;5612;51.134;17.058;2023-06-14T13:57:08;6.13;;;5.37;;
2610;SDS011;5612;51.134;17.058;2023-06-14T13:59:39;5.20;;;4.90;;
2610;SDS011;5612;51.134;17.058;2023-06-14T14:02:10;6.37;;;5.87;;
2610;SDS011;5612;51.134;17.058;2023-06-14T14:04:40;6.40;;;5.90;;
2610;SDS011;5612;51.134;17.058;2023-06-14T14:07:10;15.53;;;6.50;;
2610;SDS011;5612;51.134;17.058;2023-06-14T14:09:41;5.50;;;5.17;;
2610;SDS011;5612;51.134;17.058;2023-06-14T14:12:12;5.73;;;5.17;;
2610;SDS011;5612;51.134;17.058;2023-06-14T14:14:42;4.70;;;4.40;;
2610;SDS011;5612;51.134;17.058;2023-06-14T14:17:10;3.53;;;3.33;;
2610;SDS011;5612;51.134;17.058;2023-06-14T14:19:40;3.87;;;3.57;;
2610;SDS011;5612;51.134;17.058;2023-06-14T14:22:09;3.70;;;3.50;;
2610;SDS011;5612;51.134;17.058;2023-06-14T14:24:37;3.93;;;3.60;;
2610;SDS011;5612;51.134;17.058;2023-06-14T14:27:06;5.00;;;3.97;;
2610;SDS011;5612;51.134;17.058;2023-06-14T14:29:37;4.30;;;4.00;;
2610;SDS011;5612;51.134;17.058;2023-06-14T14:32:06;4.13;;;3.90;;
2610;SDS011;5612;51.134;17.058;2023-06-14T14:34:39;4.70;;;4.30;;
2610;SDS011;5612;51.134;17.058;2023-06-14T14:37:08;4.30;;;3.73;;
2610;SDS011;5612;51.134;17.058;2023-06-14T14:39:37;4.70;;;4.30;;
2610;SDS011;5612;51.134;17.058;2023-06-14T14:42:06;6.50;;;4.80;;
2610;SDS011;5612;51.134;17.058;2023-06-14T14:44:37;5.70;;;5.27;;
2610;SDS011;5612;51.134;17.058;2023-06-14T14:47:06;5.27;;;4.90;;
2610;SDS011;5612;51.134;17.058;2023-06-14T14:49:35;4.57;;;4.27;;
2610;SDS011;5612;51.134;17.058;2023-06-14T14:52:04;6.77;;;4.70;;
2610;SDS011;5612;51.134;17.058;2023-06-14T14:54:49;5.70;;;5.10;;
2610;SDS011;5612;51.134;17.058;2023-06-14T14:57:18;5.63;;;5.10;;
2610;SDS011;5612;51.134;17.058;2023-06-14T14:59:48;4.60;;;4.30;;
2610;SDS011;5612;51.134;17.058;2023-06-14T15:02:17;6.00;;;5.50;;
2610;SDS011;5612;51.134;17.058;2023-06-14T15:04:46;5.53;;;5.10;;
2610;SDS011;5612;51.134;17.058;2023-06-14T15:07:15;5.80;;;4.97;;
2610;SDS011;5612;51.134;17.058;2023-06-14T15:09:45;5.40;;;5.10;;
2610;SDS011;5612;51.134;17.058;2023-06-14T15:12:19;8.67;;;7.00;;
2610;SDS011;5612;51.134;17.058;2023-06-14T15:14:51;13.60;;;5.73;;
2610;SDS011;5612;51.134;17.058;2023-06-14T15:17:20;6.83;;;6.23;;